createdAt,value
2018-11-26T00:00:15.673Z,5.20
2018-11-26T00:02:44.169Z,5.20
2018-11-26T00:05:12.690Z,5.20
2018-11-26T00:07:41.126Z,5.20
2018-11-26T00:10:20.725Z,5.20
2018-11-26T00:12:49.168Z,5.20
2018-11-26T00:15:17.649Z,5.20
2018-11-26T00:17:46.103Z,5.20
2018-11-26T00:20:14.587Z,5.20
2018-11-26T00:22:43.047Z,5.20
2018-11-26T00:25:11.535Z,5.20
2018-11-26T00:27:40.237Z,5.20
2018-11-26T00:30:08.960Z,5.20
2018-11-26T00:32:37.402Z,5.20
2018-11-26T00:35:05.930Z,5.20
2018-11-26T00:37:34.388Z,5.20
2018-11-26T00:40:02.908Z,5.20
2018-11-26T00:42:31.351Z,5.20
2018-11-26T00:44:59.803Z,5.20
2018-11-26T00:47:28.274Z,5.20
2018-11-26T00:49:56.718Z,5.20
2018-11-26T00:52:25.599Z,5.20
2018-11-26T00:54:54.050Z,5.10
2018-11-26T00:57:22.547Z,5.20
2018-11-26T00:59:51.007Z,5.10
2018-11-26T01:02:19.503Z,5.10
2018-11-26T01:04:47.969Z,5.10
2018-11-26T01:07:16.462Z,5.10
2018-11-26T01:09:44.898Z,5.20
2018-11-26T01:12:13.362Z,5.10
2018-11-26T01:14:42.144Z,5.20
2018-11-26T01:17:10.609Z,5.20
2018-11-26T01:19:39.062Z,5.20
2018-11-26T01:22:07.574Z,5.20
2018-11-26T01:24:36.031Z,5.10
2018-11-26T01:27:04.540Z,5.20
2018-11-26T01:29:32.991Z,5.10
2018-11-26T01:32:01.467Z,5.10
2018-11-26T01:34:29.933Z,5.10
2018-11-26T01:36:58.403Z,5.10
2018-11-26T01:39:27.344Z,5.10
2018-11-26T01:41:55.830Z,5.10
2018-11-26T01:44:24.278Z,5.10
2018-11-26T01:46:52.776Z,5.10
2018-11-26T01:49:21.214Z,5.10
2018-11-26T01:51:49.693Z,5.10
2018-11-26T01:54:18.163Z,5.10
2018-11-26T01:56:46.658Z,5.10
2018-11-26T01:59:15.110Z,5.10
2018-11-26T02:01:43.617Z,5.10
2018-11-26T02:04:12.439Z,5.20
2018-11-26T02:06:40.911Z,5.10
2018-11-26T02:09:09.363Z,5.20
2018-11-26T02:11:37.838Z,5.20
2018-11-26T02:14:06.314Z,5.20
2018-11-26T02:16:34.800Z,5.20
2018-11-26T02:19:03.274Z,5.20
2018-11-26T02:21:31.727Z,5.20
2018-11-26T02:24:00.211Z,5.20
2018-11-26T02:26:28.697Z,5.20
2018-11-26T02:28:57.153Z,5.30
2018-11-26T02:31:25.684Z,5.30
2018-11-26T02:33:54.153Z,5.30
2018-11-26T02:36:22.622Z,5.30
2018-11-26T02:38:51.098Z,5.30
2018-11-26T02:41:19.554Z,5.30
2018-11-26T02:43:48.038Z,5.30
2018-11-26T02:46:16.511Z,5.30
2018-11-26T02:48:44.974Z,5.30
2018-11-26T02:51:13.410Z,5.30
2018-11-26T02:53:41.871Z,5.30
2018-11-26T02:56:10.334Z,5.30
2018-11-26T02:58:38.846Z,5.30
2018-11-26T03:01:07.826Z,5.30
2018-11-26T03:03:36.333Z,5.30
2018-11-26T03:06:05.490Z,5.40
2018-11-26T03:08:33.981Z,5.40
2018-11-26T03:11:02.428Z,5.40
2018-11-26T03:13:30.910Z,5.40
2018-11-26T03:15:59.349Z,5.40
2018-11-26T03:18:42.266Z,5.40
2018-11-26T03:21:10.714Z,5.30
2018-11-26T03:23:39.183Z,5.30
2018-11-26T03:26:07.639Z,5.30
2018-11-26T03:28:36.095Z,5.40
2018-11-26T03:31:04.603Z,5.40
2018-11-26T03:33:33.234Z,5.40
2018-11-26T03:36:01.671Z,5.40
2018-11-26T03:39:00.763Z,5.40
2018-11-26T03:41:29.255Z,5.40
2018-11-26T03:43:57.762Z,5.40
2018-11-26T03:46:26.218Z,5.40
2018-11-26T03:48:54.693Z,5.40
2018-11-26T03:51:23.175Z,5.40
2018-11-26T03:53:51.628Z,5.40
2018-11-26T03:56:20.083Z,5.40
2018-11-26T03:58:48.539Z,5.40
2018-11-26T04:01:16.971Z,5.40
2018-11-26T04:03:45.423Z,5.40
2018-11-26T04:06:13.892Z,5.40
2018-11-26T04:08:42.358Z,5.40
2018-11-26T04:11:10.824Z,5.40
2018-11-26T04:13:39.292Z,5.40
2018-11-26T04:16:07.746Z,5.50
2018-11-26T04:18:36.227Z,5.50
2018-11-26T04:21:05.176Z,5.50
2018-11-26T04:23:33.649Z,5.50
2018-11-26T04:26:02.098Z,5.50
2018-11-26T04:28:30.559Z,5.50
2018-11-26T04:30:59.026Z,5.50
2018-11-26T04:33:27.496Z,5.50
2018-11-26T04:35:55.968Z,5.50
2018-11-26T04:38:24.434Z,5.50
2018-11-26T04:40:52.899Z,5.50
2018-11-26T04:43:21.358Z,5.50
2018-11-26T04:45:49.827Z,5.50
2018-11-26T04:48:18.283Z,5.50
2018-11-26T04:50:46.732Z,5.50
2018-11-26T04:53:15.210Z,5.50
2018-11-26T04:55:43.650Z,5.50
2018-11-26T04:58:12.135Z,5.50
2018-11-26T05:00:40.578Z,5.50
2018-11-26T05:03:09.042Z,5.50
2018-11-26T05:05:37.532Z,5.50
2018-11-26T05:08:06.063Z,5.50
2018-11-26T05:10:34.527Z,5.60
2018-11-26T05:13:02.983Z,5.60
2018-11-26T05:15:31.448Z,5.50
2018-11-26T05:18:00.241Z,5.50
2018-11-26T05:20:28.695Z,5.50
2018-11-26T05:22:57.146Z,5.50
2018-11-26T05:25:25.630Z,5.50
2018-11-26T05:27:54.087Z,5.50
2018-11-26T05:30:22.571Z,5.50
2018-11-26T05:32:51.003Z,5.50
2018-11-26T05:35:19.486Z,5.50
2018-11-26T05:37:47.939Z,5.50
2018-11-26T05:40:17.004Z,5.50
2018-11-26T05:42:45.647Z,5.60
2018-11-26T05:45:15.275Z,5.50
2018-11-26T05:47:43.718Z,5.50
2018-11-26T05:50:13.140Z,5.50
2018-11-26T05:52:41.790Z,5.50
2018-11-26T05:55:11.735Z,5.50
2018-11-26T05:57:40.557Z,5.60
2018-11-26T06:00:13.531Z,5.60
2018-11-26T06:02:41.990Z,5.50
2018-11-26T06:05:11.317Z,5.60
2018-11-26T06:07:39.783Z,5.60
2018-11-26T06:10:09.573Z,5.50
2018-11-26T06:12:38.034Z,5.50
2018-11-26T06:15:09.990Z,5.60
2018-11-26T06:17:38.442Z,5.60
2018-11-26T06:20:08.599Z,5.60
2018-11-26T06:22:37.066Z,5.60
2018-11-26T06:25:08.294Z,5.60
2018-11-26T06:27:36.762Z,5.60
2018-11-26T06:30:08.526Z,5.60
2018-11-26T06:32:36.971Z,5.60
2018-11-26T06:35:12.984Z,5.60
2018-11-26T06:37:41.457Z,5.60
2018-11-26T06:40:10.739Z,5.60
2018-11-26T06:42:39.186Z,5.60
2018-11-26T06:45:12.903Z,5.60
2018-11-26T06:47:41.799Z,5.60
2018-11-26T06:50:13.176Z,5.60
2018-11-26T06:52:41.670Z,5.60
2018-11-26T06:55:11.548Z,5.60
2018-11-26T06:57:39.990Z,5.60
2018-11-26T07:00:10.923Z,5.60
2018-11-26T07:02:39.438Z,5.60
2018-11-26T07:05:10.896Z,5.50
2018-11-26T07:07:39.343Z,5.50
2018-11-26T07:10:08.976Z,5.60
2018-11-26T07:12:37.425Z,5.60
2018-11-26T07:15:14.038Z,5.50
2018-11-26T07:17:42.539Z,5.50
2018-11-26T07:20:12.740Z,5.60
2018-11-26T07:22:41.212Z,5.50
2018-11-26T07:25:13.523Z,5.60
2018-11-26T07:27:42.361Z,5.60
2018-11-26T07:30:15.351Z,5.60
2018-11-26T07:32:44.290Z,5.50
2018-11-26T07:35:13.276Z,5.60
2018-11-26T07:37:41.959Z,5.60
2018-11-26T07:40:15.953Z,5.60
2018-11-26T07:42:46.902Z,5.60
2018-11-26T07:45:15.364Z,5.60
2018-11-26T07:47:43.807Z,5.70
2018-11-26T07:50:14.251Z,5.70
2018-11-26T07:52:42.753Z,5.70
2018-11-26T07:55:15.513Z,5.60
2018-11-26T07:57:44.083Z,5.60
2018-11-26T08:00:13.712Z,5.60
2018-11-26T08:02:42.787Z,5.60
2018-11-26T08:05:12.983Z,5.60
2018-11-26T08:07:41.479Z,5.70
2018-11-26T08:10:18.566Z,5.70
2018-11-26T08:12:47.912Z,5.60
2018-11-26T08:15:17.477Z,5.60
2018-11-26T08:17:45.934Z,5.60
2018-11-26T08:20:14.451Z,5.60
2018-11-26T08:22:42.909Z,5.60
2018-11-26T08:25:12.690Z,5.60
2018-11-26T08:27:41.672Z,5.60
2018-11-26T08:30:13.143Z,5.60
2018-11-26T08:32:41.767Z,5.60
2018-11-26T08:35:14.414Z,5.70
2018-11-26T08:37:48.130Z,5.70
2018-11-26T08:40:21.568Z,5.60
2018-11-26T08:42:55.418Z,5.60
2018-11-26T08:45:34.347Z,5.60
2018-11-26T08:48:09.991Z,5.60
2018-11-26T08:50:38.820Z,5.60
2018-11-26T08:53:07.286Z,5.70
2018-11-26T08:55:35.786Z,5.70
2018-11-26T08:58:04.278Z,5.80
2018-11-26T09:00:32.745Z,5.80
2018-11-26T09:03:03.254Z,5.80
2018-11-26T09:05:35.822Z,5.80
2018-11-26T09:08:04.321Z,5.80
2018-11-26T09:10:32.812Z,5.80
2018-11-26T09:13:01.322Z,5.80
2018-11-26T09:15:29.811Z,5.70
2018-11-26T09:17:58.322Z,5.80
2018-11-26T09:20:26.798Z,5.80
2018-11-26T09:22:55.670Z,5.80
2018-11-26T09:25:24.155Z,5.80
2018-11-26T09:27:52.654Z,5.90
2018-11-26T09:30:21.138Z,5.80
2018-11-26T09:32:49.635Z,5.80
2018-11-26T09:35:18.103Z,5.80
2018-11-26T09:37:46.583Z,5.80
2018-11-26T09:40:16.505Z,5.80
2018-11-26T09:42:45.115Z,5.80
2018-11-26T09:45:15.841Z,5.90
2018-11-26T09:47:44.455Z,5.80
2018-11-26T09:50:14.050Z,5.80
2018-11-26T09:52:42.560Z,5.80
2018-11-26T09:55:11.723Z,5.80
2018-11-26T09:57:40.231Z,5.80
2018-11-26T10:00:18.989Z,5.90
2018-11-26T10:02:48.774Z,5.90
2018-11-26T10:05:20.154Z,5.80
2018-11-26T10:07:48.671Z,5.80
2018-11-26T10:10:17.163Z,5.90
2018-11-26T10:12:45.887Z,5.90
2018-11-26T10:15:23.300Z,5.90
2018-11-26T10:17:51.898Z,5.90
2018-11-26T10:20:20.771Z,5.90
2018-11-26T10:22:50.574Z,5.90
2018-11-26T10:25:21.071Z,5.90
2018-11-26T10:27:49.913Z,5.90
2018-11-26T10:30:20.075Z,5.90
2018-11-26T10:32:49.427Z,5.90
2018-11-26T10:35:18.911Z,6.00
2018-11-26T10:37:47.799Z,6.00
2018-11-26T10:40:18.782Z,5.90
2018-11-26T10:42:47.299Z,5.80
2018-11-26T10:45:17.631Z,5.80
2018-11-26T10:47:46.121Z,5.80
2018-11-26T10:50:17.754Z,5.80
2018-11-26T10:52:52.190Z,5.80
2018-11-26T10:55:23.662Z,5.80
2018-11-26T10:57:52.194Z,5.80
2018-11-26T11:00:25.871Z,5.70
2018-11-26T11:02:54.371Z,5.70
2018-11-26T11:05:23.211Z,5.60
2018-11-26T11:07:51.705Z,5.70
2018-11-26T11:10:21.406Z,5.70
2018-11-26T11:12:49.998Z,5.70
2018-11-26T11:15:18.590Z,5.60
2018-11-26T11:17:47.099Z,5.60
2018-11-26T11:20:20.168Z,5.60
2018-11-26T11:22:48.690Z,5.60
2018-11-26T11:25:18.110Z,5.60
2018-11-26T11:27:46.770Z,5.60
2018-11-26T11:30:17.305Z,5.60
2018-11-26T11:32:46.162Z,5.60
2018-11-26T11:35:15.191Z,5.70
2018-11-26T11:37:44.508Z,5.50
2018-11-26T11:40:31.709Z,5.50
2018-11-26T11:43:00.764Z,5.50
2018-11-26T11:45:30.362Z,5.60
2018-11-26T11:47:58.891Z,5.60
2018-11-26T11:50:27.390Z,5.60
2018-11-26T11:52:55.891Z,5.60
2018-11-26T11:55:25.445Z,5.50
2018-11-26T11:57:53.952Z,5.40
2018-11-26T12:00:42.479Z,5.50
2018-11-26T12:03:18.146Z,5.50
2018-11-26T12:05:46.694Z,5.50
2018-11-26T12:08:15.724Z,5.60
2018-11-26T12:10:44.572Z,5.60
2018-11-26T12:13:14.077Z,5.50
2018-11-26T12:15:46.056Z,5.40
2018-11-26T12:18:14.519Z,5.40
2018-11-26T12:20:42.995Z,5.40
2018-11-26T12:23:11.525Z,5.30
2018-11-26T12:25:40.032Z,5.30
2018-11-26T12:28:08.673Z,5.40
2018-11-26T12:30:40.213Z,5.40
2018-11-26T12:33:08.757Z,5.50
2018-11-26T12:35:37.279Z,5.50
2018-11-26T12:38:05.839Z,5.50
2018-11-26T12:40:34.461Z,5.50
2018-11-26T12:43:04.292Z,5.40
2018-11-26T12:45:34.057Z,5.40
2018-11-26T12:48:02.722Z,5.50
2018-11-26T12:50:31.592Z,5.30
2018-11-26T12:53:00.138Z,5.40
2018-11-26T12:55:28.808Z,5.50
2018-11-26T12:57:57.935Z,5.50
2018-11-26T13:00:27.503Z,5.40
2018-11-26T13:02:57.161Z,5.30
2018-11-26T13:05:26.134Z,5.20
2018-11-26T13:07:54.620Z,5.30
2018-11-26T13:10:23.576Z,5.30
2018-11-26T13:12:52.507Z,5.30
2018-11-26T13:15:22.993Z,5.20
2018-11-26T13:17:51.498Z,5.20
2018-11-26T13:20:22.698Z,5.20
2018-11-26T13:22:52.132Z,5.20
2018-11-26T13:25:22.655Z,5.20
2018-11-26T13:27:53.192Z,5.20
2018-11-26T13:30:24.909Z,5.10
2018-11-26T13:32:55.009Z,5.00
2018-11-26T13:35:23.541Z,5.10
2018-11-26T13:37:52.066Z,5.10
2018-11-26T13:40:21.060Z,5.20
2018-11-26T13:42:49.935Z,5.20
2018-11-26T13:45:22.648Z,5.20
2018-11-26T13:47:51.181Z,5.10
2018-11-26T13:50:35.724Z,5.20
2018-11-26T13:53:04.256Z,5.20
2018-11-26T13:55:32.776Z,5.10
2018-11-26T13:58:01.244Z,5.10
2018-11-26T14:00:29.736Z,5.10
2018-11-26T14:02:58.212Z,5.00
2018-11-26T14:05:26.714Z,4.90
2018-11-26T14:07:55.245Z,4.90
2018-11-26T14:10:24.685Z,4.80
2018-11-26T14:12:56.216Z,4.80
2018-11-26T14:15:24.718Z,4.70
2018-11-26T14:17:53.181Z,4.60
2018-11-26T14:20:21.697Z,4.70
2018-11-26T14:22:50.612Z,4.60
2018-11-26T14:25:20.211Z,4.60
2018-11-26T14:27:49.116Z,4.60
2018-11-26T14:30:22.029Z,4.50
2018-11-26T14:32:50.894Z,4.60
2018-11-26T14:35:19.398Z,4.60
2018-11-26T14:37:50.216Z,4.60
2018-11-26T14:40:23.081Z,4.60
2018-11-26T14:42:51.648Z,4.50
2018-11-26T14:45:20.166Z,4.40
2018-11-26T14:47:49.032Z,4.40
2018-11-26T14:50:17.679Z,4.40
2018-11-26T14:52:47.287Z,4.40
2018-11-26T14:55:24.612Z,4.40
2018-11-26T14:57:53.096Z,4.40
2018-11-26T15:00:21.896Z,4.40
2018-11-26T15:02:50.476Z,4.40
2018-11-26T15:05:18.968Z,4.40
2018-11-26T15:07:47.502Z,4.30
2018-11-26T15:10:20.957Z,4.40
2018-11-26T15:12:49.881Z,4.40
2018-11-26T15:15:19.709Z,4.30
2018-11-26T15:17:48.245Z,4.30
2018-11-26T15:20:18.816Z,4.30
2018-11-26T15:22:47.612Z,4.30
2018-11-26T15:25:21.210Z,4.30
2018-11-26T15:27:50.146Z,4.30
2018-11-26T15:30:19.664Z,4.40
2018-11-26T15:32:48.323Z,4.40
2018-11-26T15:35:19.746Z,4.30
2018-11-26T15:37:48.354Z,4.30
2018-11-26T15:40:17.824Z,4.30
2018-11-26T15:42:46.368Z,4.30
2018-11-26T15:45:15.956Z,4.40
2018-11-26T15:47:44.470Z,4.40
2018-11-26T15:50:12.948Z,4.30
2018-11-26T15:52:42.110Z,4.30
2018-11-26T15:55:14.881Z,4.40
2018-11-26T15:57:43.483Z,4.40
2018-11-26T16:00:17.897Z,4.40
2018-11-26T16:02:46.593Z,4.40
2018-11-26T16:05:17.232Z,4.40
2018-11-26T16:07:46.049Z,4.40
2018-11-26T16:10:15.158Z,4.40
2018-11-26T16:12:44.435Z,4.40
2018-11-26T16:15:15.267Z,4.30
2018-11-26T16:17:44.158Z,4.30
2018-11-26T16:20:14.272Z,4.30
2018-11-26T16:22:42.964Z,4.30
2018-11-26T16:25:21.400Z,4.30
2018-11-26T16:27:49.959Z,4.30
2018-11-26T16:30:19.608Z,4.30
2018-11-26T16:32:50.397Z,4.30
2018-11-26T16:35:22.835Z,4.30
2018-11-26T16:37:51.436Z,4.30
2018-11-26T16:40:20.284Z,4.30
2018-11-26T16:42:48.816Z,4.20
2018-11-26T16:45:26.870Z,4.30
2018-11-26T16:47:56.027Z,4.20
2018-11-26T16:50:28.749Z,4.30
2018-11-26T16:52:57.286Z,4.20
2018-11-26T16:55:26.553Z,4.30
2018-11-26T16:57:55.078Z,4.20
2018-11-26T17:00:25.670Z,4.20
2018-11-26T17:02:55.244Z,4.20
2018-11-26T17:05:38.465Z,4.20
2018-11-26T17:08:08.415Z,4.10
2018-11-26T17:10:36.905Z,4.10
2018-11-26T17:13:06.179Z,4.00
2018-11-26T17:15:34.643Z,4.00
2018-11-26T17:18:03.141Z,4.10
2018-11-26T17:20:31.622Z,4.10
2018-11-26T17:23:00.123Z,4.10
2018-11-26T17:25:28.719Z,4.10
2018-11-26T17:27:57.230Z,4.00
2018-11-26T17:30:26.959Z,4.10
2018-11-26T17:33:00.893Z,4.10
2018-11-26T17:35:30.390Z,4.00
2018-11-26T17:37:58.920Z,4.10
2018-11-26T17:40:27.954Z,4.10
2018-11-26T17:42:56.676Z,4.10
2018-11-26T17:45:25.762Z,4.10
2018-11-26T17:47:55.638Z,4.10
2018-11-26T17:50:25.803Z,4.00
2018-11-26T17:52:54.334Z,4.10
2018-11-26T17:55:23.167Z,4.10
2018-11-26T17:57:51.719Z,4.10
2018-11-26T18:00:24.628Z,4.10
2018-11-26T18:02:53.112Z,4.10
2018-11-26T18:05:22.876Z,4.10
2018-11-26T18:07:54.396Z,4.10
2018-11-26T18:10:24.617Z,4.10
2018-11-26T18:12:53.112Z,4.10
2018-11-26T18:15:21.592Z,4.10
2018-11-26T18:17:50.201Z,4.20
2018-11-26T18:20:19.956Z,4.20
2018-11-26T18:22:49.671Z,4.20
2018-11-26T18:25:18.787Z,4.20
2018-11-26T18:27:50.429Z,4.10
2018-11-26T18:30:20.828Z,4.10
2018-11-26T18:32:49.324Z,4.20
2018-11-26T18:35:21.100Z,4.10
2018-11-26T18:37:49.604Z,4.10
2018-11-26T18:40:18.724Z,4.10
2018-11-26T18:42:47.229Z,4.10
2018-11-26T18:45:17.060Z,4.10
2018-11-26T18:47:46.144Z,4.20
2018-11-26T18:50:17.455Z,4.20
2018-11-26T18:52:46.485Z,4.20
2018-11-26T18:55:15.041Z,4.20
2018-11-26T18:57:44.048Z,4.20
2018-11-26T19:00:18.563Z,4.20
2018-11-26T19:02:47.103Z,4.20
2018-11-26T19:05:16.236Z,4.20
2018-11-26T19:07:44.731Z,4.20
2018-11-26T19:10:22.960Z,4.20
2018-11-26T19:14:58.609Z,4.20
2018-11-26T19:17:27.075Z,4.20
2018-11-26T19:19:55.560Z,4.20
2018-11-26T19:22:24.045Z,4.20
2018-11-26T19:24:52.644Z,4.20
2018-11-26T19:27:21.141Z,4.20
2018-11-26T19:29:49.648Z,4.20
2018-11-26T19:32:18.184Z,4.20
2018-11-26T19:34:46.685Z,4.20
2018-11-26T19:37:15.156Z,4.20
2018-11-26T19:39:43.703Z,4.20
2018-11-26T19:42:12.204Z,4.20
2018-11-26T19:44:40.728Z,4.20
2018-11-26T19:47:09.267Z,4.20
2018-11-26T19:49:37.843Z,4.10
2018-11-26T19:52:06.382Z,4.20
2018-11-26T19:54:34.912Z,4.20
2018-11-26T19:57:03.417Z,4.20
2018-11-26T19:59:31.967Z,4.20
2018-11-26T20:02:00.480Z,4.20
2018-11-26T20:04:32.262Z,4.20
2018-11-26T20:07:00.732Z,4.20
2018-11-26T20:09:29.216Z,4.30
2018-11-26T20:11:57.760Z,4.20
2018-11-26T20:14:26.251Z,4.30
2018-11-26T20:16:54.767Z,4.20
2018-11-26T20:19:23.256Z,4.20
2018-11-26T20:21:51.768Z,4.20
2018-11-26T20:24:20.313Z,4.30
2018-11-26T20:26:48.829Z,4.30
2018-11-26T20:29:17.325Z,4.30
2018-11-26T20:31:45.928Z,4.30
2018-11-26T20:34:14.787Z,4.30
2018-11-26T20:36:43.299Z,4.30
2018-11-26T20:39:11.817Z,4.20
2018-11-26T20:41:40.399Z,4.20
2018-11-26T20:44:09.276Z,4.20
2018-11-26T20:46:37.796Z,4.20
2018-11-26T20:49:08.523Z,4.20
2018-11-26T20:51:37.064Z,4.20
2018-11-26T20:54:06.192Z,4.20
2018-11-26T20:56:34.704Z,4.20
2018-11-26T20:59:03.234Z,4.20
2018-11-26T21:01:31.785Z,4.30
2018-11-26T21:04:00.437Z,4.30
2018-11-26T21:06:29.015Z,4.30
2018-11-26T21:08:57.582Z,4.30
2018-11-26T21:11:26.085Z,4.30
2018-11-26T21:13:54.623Z,4.30
2018-11-26T21:16:23.222Z,4.30
2018-11-26T21:18:51.758Z,4.30
2018-11-26T21:21:20.361Z,4.30
2018-11-26T21:23:48.963Z,4.30
2018-11-26T21:26:17.855Z,4.40
2018-11-26T21:28:46.424Z,4.30
2018-11-26T21:31:14.921Z,4.30
2018-11-26T21:33:43.552Z,4.30
2018-11-26T21:36:12.105Z,4.30
2018-11-26T21:38:41.209Z,4.30
2018-11-26T21:41:09.748Z,4.20
2018-11-26T21:43:38.396Z,4.20
2018-11-26T21:46:07.685Z,4.30
2018-11-26T21:48:36.424Z,4.20
2018-11-26T21:51:05.056Z,4.20
2018-11-26T21:53:33.677Z,4.20
2018-11-26T21:56:02.196Z,4.20
2018-11-26T21:58:30.710Z,4.20
2018-11-26T22:01:00.492Z,4.20
2018-11-26T22:03:30.620Z,4.30
2018-11-26T22:05:57.581Z,4.30
2018-11-26T22:08:26.071Z,4.30
2018-11-26T22:10:54.644Z,4.30
2018-11-26T22:13:23.117Z,4.30
2018-11-26T22:15:51.596Z,4.30
2018-11-26T22:18:20.117Z,4.30
2018-11-26T22:20:48.572Z,4.30
2018-11-26T22:23:17.413Z,4.40
2018-11-26T22:25:45.991Z,4.30
2018-11-26T22:28:14.509Z,4.40
2018-11-26T22:30:43.717Z,4.40
2018-11-26T22:33:12.284Z,4.30
2018-11-26T22:35:40.796Z,4.30
2018-11-26T22:38:09.852Z,4.30
2018-11-26T22:40:38.337Z,4.30
2018-11-26T22:43:06.892Z,4.20
2018-11-26T22:45:35.627Z,4.30
2018-11-26T22:48:07.034Z,4.20
2018-11-26T22:50:36.328Z,4.20
2018-11-26T22:53:04.974Z,4.20
2018-11-26T22:55:33.896Z,4.20
2018-11-26T22:58:02.385Z,4.20
2018-11-26T23:00:38.490Z,4.30
2018-11-26T23:03:07.474Z,4.30
2018-11-26T23:05:35.964Z,4.30
2018-11-26T23:08:04.772Z,4.30
2018-11-26T23:10:33.265Z,4.20
2018-11-26T23:13:01.768Z,4.20
2018-11-26T23:15:30.669Z,4.20
2018-11-26T23:17:59.154Z,4.20
2018-11-26T23:20:28.428Z,4.20
2018-11-26T23:22:56.920Z,4.20
2018-11-26T23:25:25.697Z,4.20
2018-11-26T23:27:54.203Z,4.30
2018-11-26T23:30:24.616Z,4.20
2018-11-26T23:32:54.616Z,4.20
2018-11-26T23:35:23.088Z,4.20
2018-11-26T23:37:51.712Z,4.20
2018-11-26T23:40:20.544Z,4.20
2018-11-26T23:42:49.808Z,4.30
2018-11-26T23:45:19.252Z,4.30
2018-11-26T23:47:49.070Z,4.30
2018-11-26T23:50:18.327Z,4.20
2018-11-26T23:52:47.265Z,4.30
2018-11-26T23:55:18.744Z,4.30
2018-11-26T23:57:47.613Z,4.30
